Time;durP1;ratioP1;P1;durP2;ratioP2;P2;SDS_P1;SDS_P2;PMS_P1;PMS_P2;Temp;Humidity;BMP_temperature;BMP_pressure;BME280_temperature;BME280_humidity;BME280_pressure;Samples;Min_cycle;Max_cycle;Signal;HPM_P1;HPM_P2
2021/03/31 00:01:40;;;;;;;5.78;3.53;;;;;;;11.74;49.87;99009.44;4987330;28;20244;-74
2021/03/31 00:04:07;;;;;;;7.85;3.22;;;;;;;11.74;49.29;99009.44;4985443;28;20225;-74
2021/03/31 00:06:33;;;;;;;5.20;3.08;;;;;;;11.69;48.96;99007.00;4980359;28;20240;-74
2021/03/31 00:08:59;;;;;;;5.47;3.85;;;;;;;11.70;49.89;99008.69;4984734;28;20220;-74
2021/03/31 00:11:25;;;;;;;5.75;3.30;;;;;;;11.73;49.33;99006.00;4986372;28;20346;-73
2021/03/31 00:13:51;;;;;;;5.43;3.80;;;;;;;11.70;49.47;98998.22;4991177;28;20215;-74
2021/03/31 00:16:18;;;;;;;7.80;3.75;;;;;;;11.58;49.55;99003.84;4986105;28;20803;-74
2021/03/31 00:18:44;;;;;;;5.38;3.60;;;;;;;11.50;49.57;98996.19;4989840;28;20216;-75
2021/03/31 00:21:10;;;;;;;7.32;3.65;;;;;;;11.54;50.30;98996.97;4982534;28;20217;-74
2021/03/31 00:23:36;;;;;;;5.90;2.90;;;;;;;11.61;50.13;98998.50;4984833;28;20965;-74
2021/03/31 00:26:03;;;;;;;6.40;3.50;;;;;;;11.64;49.97;98997.56;4982461;28;20792;-74
2021/03/31 00:28:29;;;;;;;5.00;3.15;;;;;;;11.57;49.36;98997.75;4982750;28;20911;-74
2021/03/31 00:30:55;;;;;;;5.20;3.22;;;;;;;11.44;49.32;98996.38;4988018;28;20834;-74
2021/03/31 00:33:22;;;;;;;4.53;3.30;;;;;;;11.25;49.62;98990.84;4987648;28;20223;-74
2021/03/31 00:35:49;;;;;;;7.35;3.40;;;;;;;11.14;50.32;98987.66;4980419;28;20855;-74
2021/03/31 00:38:15;;;;;;;6.10;3.35;;;;;;;11.03;49.83;99000.13;4984419;28;20896;-74
2021/03/31 00:40:42;;;;;;;5.82;3.33;;;;;;;10.91;50.14;98988.28;4982625;28;20223;-74
2021/03/31 00:43:09;;;;;;;7.70;3.20;;;;;;;10.84;50.98;98990.19;4987549;28;20248;-74
2021/03/31 00:45:35;;;;;;;6.10;3.85;;;;;;;10.75;50.80;98985.19;4984654;28;20212;-74
2021/03/31 00:48:01;;;;;;;4.78;3.22;;;;;;;10.61;51.05;98982.97;4989468;28;21209;-74
2021/03/31 00:50:28;;;;;;;3.97;3.08;;;;;;;10.56;51.11;98980.44;4981035;28;20292;-74
2021/03/31 00:52:55;;;;;;;5.93;3.35;;;;;;;10.54;51.36;98982.25;4978206;28;20246;-74
2021/03/31 00:55:23;;;;;;;6.95;3.70;;;;;;;10.40;51.42;98973.91;4985083;28;20211;-74
2021/03/31 00:57:49;;;;;;;5.90;3.55;;;;;;;10.40;51.59;98974.78;4985697;28;20241;-74
2021/03/31 01:00:17;;;;;;;4.90;3.47;;;;;;;10.50;51.13;98970.19;4985811;28;20218;-74
2021/03/31 01:02:43;;;;;;;5.57;2.95;;;;;;;10.55;51.29;98970.94;4984211;28;20235;-74
2021/03/31 01:05:11;;;;;;;4.65;3.20;;;;;;;10.59;51.81;98967.34;4986975;28;20216;-74
2021/03/31 01:07:38;;;;;;;5.15;3.30;;;;;;;10.69;51.56;98969.72;4986131;28;20669;-74
2021/03/31 01:10:06;;;;;;;5.53;3.28;;;;;;;10.77;51.47;98963.41;4987955;28;20270;-75
2021/03/31 01:12:37;;;;;;;4.18;2.95;;;;;;;10.82;50.51;98958.03;4984254;28;20752;-74
2021/03/31 01:15:08;;;;;;;5.25;3.00;;;;;;;10.82;50.63;98959.81;4986615;28;20216;-74
2021/03/31 01:17:38;;;;;;;6.35;3.30;;;;;;;10.82;51.11;98960.66;4983220;28;20236;-74
2021/03/31 01:20:38;;;;;;;5.13;2.80;;;;;;;10.85;50.58;98955.38;4985433;28;20216;-74
2021/03/31 01:23:38;;;;;;;6.18;3.67;;;;;;;10.79;50.44;98955.53;4981531;28;21121;-74
2021/03/31 01:26:07;;;;;;;6.18;3.30;;;;;;;10.64;50.90;98958.53;4985912;28;20239;-74
2021/03/31 01:28:55;;;;;;;5.05;3.53;;;;;;;10.54;50.77;98950.94;4987601;28;20224;-74
2021/03/31 01:31:32;;;;;;;6.80;3.08;;;;;;;10.53;51.29;98954.47;4982123;28;20224;-74
2021/03/31 01:34:32;;;;;;;5.28;3.17;;;;;;;10.51;51.33;98956.25;4981280;28;20216;-74
2021/03/31 01:37:00;;;;;;;8.60;3.20;;;;;;;10.49;51.51;98955.41;4975107;28;20290;-74
2021/03/31 01:39:27;;;;;;;4.20;3.10;;;;;;;10.44;51.50;98954.69;4982400;28;20247;-74
2021/03/31 01:41:55;;;;;;;6.63;3.22;;;;;;;10.44;51.94;98951.22;4979223;28;20238;-74
2021/03/31 01:44:21;;;;;;;7.10;3.20;;;;;;;10.51;51.60;98953.66;4983670;28;20224;-74
2021/03/31 01:46:51;;;;;;;6.93;3.58;;;;;;;10.49;51.29;98947.59;4983096;28;20245;-74
2021/03/31 01:49:18;;;;;;;6.38;3.58;;;;;;;10.41;51.70;98944.34;4980076;28;20703;-74
2021/03/31 01:51:45;;;;;;;5.53;3.10;;;;;;;10.29;51.72;98937.63;4983805;28;20217;-75
2021/03/31 01:54:15;;;;;;;4.88;3.25;;;;;;;10.25;51.98;98937.75;4985424;28;20723;-74
2021/03/31 01:56:41;;;;;;;6.22;3.70;;;;;;;10.29;52.00;98934.16;4985399;28;20243;-74
2021/03/31 01:59:08;;;;;;;6.10;3.25;;;;;;;10.30;51.60;98941.13;4982536;28;20232;-74
2021/03/31 02:01:34;;;;;;;3.75;2.88;;;;;;;10.26;51.54;98940.31;4984788;28;20217;-74
2021/03/31 02:04:00;;;;;;;5.35;3.38;;;;;;;10.20;51.80;98936.13;4981406;28;20219;-74
2021/03/31 02:06:28;;;;;;;4.40;2.83;;;;;;;10.19;51.90;98934.41;4986088;28;20590;-74
2021/03/31 02:08:55;;;;;;;6.40;3.08;;;;;;;10.10;52.11;98929.41;4982829;28;20565;-74
2021/03/31 02:11:25;;;;;;;6.00;3.00;;;;;;;9.95;52.17;98927.19;4982872;28;20595;-73
2021/03/31 02:13:51;;;;;;;4.40;2.83;;;;;;;9.80;53.55;98929.25;4981049;28;20729;-74
2021/03/31 02:16:18;;;;;;;3.95;2.85;;;;;;;9.80;53.06;98929.25;4977082;28;20245;-75
2021/03/31 02:18:45;;;;;;;5.10;3.35;;;;;;;9.77;53.17;98931.91;4984293;28;20228;-74
2021/03/31 02:21:13;;;;;;;6.18;2.95;;;;;;;9.63;52.87;98931.34;4982459;28;20208;-74
2021/03/31 02:23:39;;;;;;;3.10;2.50;;;;;;;9.63;53.05;98918.34;4980284;28;20240;-74
2021/03/31 02:26:05;;;;;;;4.97;2.60;;;;;;;9.73;53.63;98925.06;4983550;28;20254;-75
2021/03/31 02:28:32;;;;;;;6.25;3.13;;;;;;;9.82;53.22;98922.25;4982874;28;20212;-74
2021/03/31 02:30:58;;;;;;;6.30;3.05;;;;;;;9.88;52.98;98920.41;4984228;28;20269;-75
2021/03/31 02:33:26;;;;;;;4.05;2.92;;;;;;;9.94;52.78;98918.47;4981813;28;20228;-74
2021/03/31 02:35:52;;;;;;;6.30;2.70;;;;;;;9.95;52.12;98914.16;4982066;28;20280;-75
2021/03/31 02:38:19;;;;;;;5.43;2.67;;;;;;;9.95;52.53;98908.94;4982078;28;20317;-74
2021/03/31 02:40:46;;;;;;;4.30;3.05;;;;;;;10.00;52.56;98914.91;4984433;28;20221;-74
2021/03/31 02:43:14;;;;;;;5.30;3.17;;;;;;;9.99;52.44;98913.16;4981597;28;20245;-74
2021/03/31 02:45:41;;;;;;;4.82;2.80;;;;;;;9.98;52.39;98919.25;4986063;28;20216;-74
2021/03/31 02:48:09;;;;;;;4.13;3.00;;;;;;;9.96;52.25;98914.13;4978761;28;20232;-74
2021/03/31 02:50:35;;;;;;;4.35;2.85;;;;;;;9.95;52.79;98921.97;4981982;28;20698;-74
2021/03/31 02:53:02;;;;;;;5.10;2.97;;;;;;;9.95;52.39;98922.81;4983068;28;20590;-74
2021/03/31 02:55:28;;;;;;;4.20;3.15;;;;;;;9.90;52.53;98919.44;4978910;28;20223;-74
2021/03/31 02:57:54;;;;;;;5.82;3.33;;;;;;;9.79;52.29;98918.84;4982925;28;20285;-74
2021/03/31 03:00:21;;;;;;;5.43;3.08;;;;;;;9.73;52.68;98913.78;4978618;28;20224;-74
2021/03/31 03:02:48;;;;;;;5.28;2.85;;;;;;;9.71;52.75;98910.38;4979325;28;21082;-74
2021/03/31 03:05:17;;;;;;;6.97;3.05;;;;;;;9.67;52.47;98904.38;4980284;28;20217;-74
2021/03/31 03:07:43;;;;;;;3.55;3.00;;;;;;;9.60;52.77;98910.59;4981828;28;20228;-74
2021/03/31 03:10:11;;;;;;;3.67;2.70;;;;;;;9.47;52.99;98907.41;4983476;28;20693;-74
2021/03/31 03:12:39;;;;;;;7.20;3.10;;;;;;;9.35;53.63;98899.88;4981926;28;20235;-74
2021/03/31 03:15:08;;;;;;;7.00;3.38;;;;;;;9.32;53.50;98898.19;4979042;28;20228;-75
2021/03/31 03:17:34;;;;;;;6.30;3.10;;;;;;;9.26;53.75;98898.31;4979046;28;20666;-75
2021/03/31 03:20:01;;;;;;;5.50;3.10;;;;;;;9.30;53.69;98901.69;4982115;28;20215;-74
2021/03/31 03:22:27;;;;;;;5.57;3.20;;;;;;;9.36;53.60;98894.63;4979800;28;20372;-75
2021/03/31 03:24:54;;;;;;;5.28;3.20;;;;;;;9.40;53.78;98903.22;4984105;28;20239;-75
2021/03/31 03:27:20;;;;;;;8.30;4.32;;;;;;;9.33;53.25;98892.09;4980830;28;20720;-74
2021/03/31 03:29:48;;;;;;;6.28;3.72;;;;;;;9.29;53.83;98892.19;4981895;28;20215;-74
2021/03/31 03:32:15;;;;;;;6.80;4.10;;;;;;;9.28;53.63;98891.31;4979649;28;20229;-74
2021/03/31 03:34:42;;;;;;;8.75;4.07;;;;;;;9.26;53.38;98883.56;4983833;28;20221;-74
2021/03/31 03:37:09;;;;;;;5.97;3.90;;;;;;;9.23;53.52;98898.41;4980216;28;20298;-74
2021/03/31 03:39:35;;;;;;;4.97;3.83;;;;;;;9.11;53.62;98890.84;4980944;28;20247;-74
2021/03/31 03:42:01;;;;;;;4.35;3.33;;;;;;;8.90;54.06;98890.38;4979832;28;20244;-75
2021/03/31 03:44:27;;;;;;;4.75;3.60;;;;;;;8.72;54.01;98898.56;4983189;28;20250;-74
2021/03/31 03:46:54;;;;;;;5.97;3.35;;;;;;;8.62;55.00;98893.53;4981868;28;20313;-74
2021/03/31 03:49:21;;;;;;;6.05;3.42;;;;;;;8.57;54.70;98886.69;4982139;28;20220;-74
2021/03/31 03:51:47;;;;;;;5.32;3.42;;;;;;;8.53;54.81;98898.91;4979517;28;20307;-74
2021/03/31 03:54:14;;;;;;;4.38;3.00;;;;;;;8.42;54.51;98890.44;4982765;28;20673;-74
2021/03/31 03:56:46;;;;;;;4.25;3.10;;;;;;;8.25;54.91;98891.56;4981150;28;20237;-74
2021/03/31 03:59:19;;;;;;;5.80;2.80;;;;;;;8.13;55.30;98894.38;4981217;28;20228;-74
2021/03/31 04:01:45;;;;;;;5.18;3.30;;;;;;;8.10;55.57;98891.81;4981128;28;20216;-75
2021/03/31 04:04:12;;;;;;;5.80;3.10;;;;;;;8.03;55.75;98895.38;4984577;28;20220;-75
2021/03/31 04:06:38;;;;;;;4.68;2.88;;;;;;;7.87;55.82;98890.44;4981422;28;21042;-74
2021/03/31 04:09:04;;;;;;;6.25;3.28;;;;;;;7.78;56.53;98893.19;4985546;28;20269;-74
2021/03/31 04:11:32;;;;;;;3.90;3.10;;;;;;;7.80;55.85;98896.63;4983429;28;20230;-74
2021/03/31 04:13:59;;;;;;;7.45;3.80;;;;;;;7.83;55.93;98893.97;4977720;28;20218;-74
2021/03/31 04:16:25;;;;;;;5.75;3.38;;;;;;;7.84;56.64;98895.69;4979852;28;20236;-74
2021/03/31 04:18:53;;;;;;;5.00;3.55;;;;;;;7.97;56.19;98895.50;4983539;28;20230;-75
2021/03/31 04:21:19;;;;;;;7.60;3.50;;;;;;;8.02;55.61;98893.69;4987287;28;20248;-74
2021/03/31 04:23:45;;;;;;;4.72;3.35;;;;;;;8.01;56.03;98897.16;4985014;28;20235;-74
2021/03/31 04:26:12;;;;;;;4.60;3.20;;;;;;;7.92;56.35;98898.16;4981137;28;20271;-74
2021/03/31 04:28:40;;;;;;;7.03;3.33;;;;;;;7.84;56.03;98895.69;4982914;28;20599;-75
2021/03/31 04:31:07;;;;;;;5.68;3.05;;;;;;;7.80;56.67;98899.22;4982170;28;20719;-74
2021/03/31 04:33:34;;;;;;;7.00;3.67;;;;;;;7.76;56.26;98900.16;4987659;28;20216;-74
2021/03/31 04:36:00;;;;;;;8.05;3.97;;;;;;;7.72;56.46;98895.88;4986437;28;20332;-74
2021/03/31 04:38:26;;;;;;;7.82;4.20;;;;;;;7.72;56.19;98895.88;4984334;28;20279;-74
2021/03/31 04:40:55;;;;;;;5.60;3.35;;;;;;;7.87;56.97;98897.38;4979900;28;20216;-74
2021/03/31 04:43:23;;;;;;;4.85;3.17;;;;;;;8.00;56.09;98891.09;4979240;28;20244;-74
2021/03/31 04:45:50;;;;;;;7.20;3.92;;;;;;;7.99;56.72;98889.38;4987048;28;20220;-74
2021/03/31 04:48:16;;;;;;;6.30;3.50;;;;;;;8.07;56.51;98886.69;4984321;28;20220;-74
2021/03/31 04:50:42;;;;;;;10.90;3.28;;;;;;;8.13;55.41;98891.75;4980323;28;20312;-74
2021/03/31 04:53:08;;;;;;;7.65;3.20;;;;;;;8.09;55.85;98895.31;4985315;28;20224;-74
2021/03/31 04:55:34;;;;;;;6.60;3.15;;;;;;;8.11;56.48;98893.53;4980758;28;20908;-74
2021/03/31 04:58:00;;;;;;;4.78;3.05;;;;;;;8.13;55.64;98899.56;4983166;28;20237;-74
2021/03/31 05:00:27;;;;;;;5.88;3.50;;;;;;;8.18;55.70;98894.25;4983918;28;20213;-74
2021/03/31 05:02:54;;;;;;;6.47;3.55;;;;;;;8.16;55.52;98891.72;4973994;28;20239;-74
2021/03/31 05:05:20;;;;;;;6.88;4.07;;;;;;;8.11;55.53;98890.94;4984751;28;21233;-74
2021/03/31 05:07:46;;;;;;;9.00;4.00;;;;;;;8.03;55.71;98885.88;4978873;28;20235;-74
2021/03/31 05:10:12;;;;;;;8.05;3.40;;;;;;;7.97;56.25;98891.16;4979966;28;20682;-74
2021/03/31 05:12:38;;;;;;;8.05;3.28;;;;;;;8.03;55.69;98890.19;4984274;28;20221;-74
2021/03/31 05:15:06;;;;;;;6.78;3.70;;;;;;;8.08;55.68;98894.41;4991017;28;20220;-74
2021/03/31 05:17:32;;;;;;;6.75;3.35;;;;;;;8.05;55.92;98891.00;4989163;28;20240;-74
2021/03/31 05:19:59;;;;;;;5.63;3.17;;;;;;;8.01;56.33;98891.97;4985701;28;20213;-74
2021/03/31 05:22:25;;;;;;;6.07;3.47;;;;;;;8.01;56.33;98891.97;4983426;28;20258;-74
2021/03/31 05:24:51;;;;;;;8.10;3.92;;;;;;;8.04;56.15;98881.53;4987218;28;20230;-74
2021/03/31 05:27:18;;;;;;;7.53;3.55;;;;;;;8.06;55.72;98884.94;4987894;28;20302;-74
2021/03/31 05:29:44;;;;;;;6.95;3.60;;;;;;;8.08;56.33;98885.78;4981121;28;20220;-74
2021/03/31 05:32:10;;;;;;;7.15;3.58;;;;;;;8.15;56.45;98890.00;4986618;28;20216;-74
2021/03/31 05:34:36;;;;;;;8.45;3.95;;;;;;;8.25;56.33;98882.88;4985398;28;20231;-74
2021/03/31 05:37:04;;;;;;;8.55;3.65;;;;;;;8.30;56.58;98883.66;4982783;28;20246;-74
2021/03/31 05:39:31;;;;;;;6.93;3.70;;;;;;;8.37;55.75;98874.88;4981722;28;20212;-74
2021/03/31 05:41:57;;;;;;;5.78;3.90;;;;;;;8.39;55.92;98886.09;4985599;28;20264;-74
2021/03/31 05:44:23;;;;;;;5.68;3.60;;;;;;;8.34;56.10;98882.72;4989652;28;20759;-74
2021/03/31 05:46:50;;;;;;;18.63;13.00;;;;;;;8.24;55.98;98889.84;4980238;28;20239;-74
2021/03/31 05:49:16;;;;;;;14.40;10.50;;;;;;;8.14;56.19;98883.06;4983163;28;20224;-74
2021/03/31 05:51:42;;;;;;;12.40;9.55;;;;;;;8.09;56.81;98880.56;4986743;28;20216;-74
2021/03/31 05:54:10;;;;;;;8.70;6.88;;;;;;;8.20;56.50;98876.94;4986002;28;20686;-74
2021/03/31 05:56:36;;;;;;;14.85;7.40;;;;;;;8.32;56.67;98870.66;4983689;28;20247;-74
2021/03/31 05:59:02;;;;;;;12.00;6.85;;;;;;;8.35;56.52;98871.44;4981927;28;20223;-74
2021/03/31 06:01:28;;;;;;;8.40;5.00;;;;;;;8.30;56.35;98868.06;4979003;28;20217;-74
2021/03/31 06:03:56;;;;;;;5.80;4.93;;;;;;;8.28;56.11;98868.09;4983273;28;20237;-74
2021/03/31 06:06:22;;;;;;;7.80;4.95;;;;;;;8.31;56.69;98864.59;4985885;28;20652;-74
2021/03/31 06:08:48;;;;;;;5.20;4.10;;;;;;;8.41;56.13;98865.28;4988730;28;20700;-74
2021/03/31 06:11:17;;;;;;;6.90;4.20;;;;;;;8.52;56.37;98858.16;4987381;28;20220;-74
2021/03/31 06:13:50;;;;;;;7.13;4.70;;;;;;;8.69;56.24;98865.63;4984276;28;20250;-75
2021/03/31 06:16:26;;;;;;;7.22;4.50;;;;;;;8.82;56.55;98864.53;4983805;28;20244;-74
2021/03/31 06:18:52;;;;;;;6.57;4.00;;;;;;;8.91;56.31;98868.66;4982723;28;20225;-73
2021/03/31 06:21:19;;;;;;;5.35;3.97;;;;;;;8.95;56.13;98865.13;4987357;28;20235;-74
2021/03/31 06:26:30;;;;;;;8.13;4.05;;;;;;;9.28;56.65;98860.06;4985502;28;20235;-76
2021/03/31 06:28:58;;;;;;;5.97;3.55;;;;;;;9.41;56.51;98863.25;4981507;28;20224;-76
2021/03/31 06:31:28;;;;;;;8.07;4.00;;;;;;;9.43;55.99;98864.97;4984231;28;20216;-76
2021/03/31 06:33:55;;;;;;;9.63;4.07;;;;;;;9.45;56.18;98868.38;4985902;28;20712;-76
2021/03/31 06:36:34;;;;;;;7.10;3.67;;;;;;;9.50;56.42;98864.81;4986426;28;20268;-76
2021/03/31 06:39:01;;;;;;;8.13;4.15;;;;;;;9.60;56.45;98868.94;4986171;28;20216;-75
2021/03/31 06:41:29;;;;;;;8.65;3.85;;;;;;;9.68;56.27;98867.00;4984995;28;20419;-75
2021/03/31 06:44:08;;;;;;;7.63;4.20;;;;;;;9.79;56.33;98857.16;4986788;28;20293;-76
2021/03/31 06:46:49;;;;;;;7.13;4.22;;;;;;;9.95;56.45;98860.25;4986944;28;20295;-75
2021/03/31 06:49:15;;;;;;;7.07;3.80;;;;;;;10.16;56.28;98856.28;4985130;28;20235;-75
2021/03/31 06:51:42;;;;;;;7.90;3.67;;;;;;;10.34;56.07;98859.31;4980195;28;20244;-75
2021/03/31 06:54:16;;;;;;;8.38;3.88;;;;;;;10.52;55.63;98863.19;4987439;28;20217;-75
2021/03/31 06:56:44;;;;;;;7.05;3.53;;;;;;;10.70;54.92;98854.03;4986419;28;20252;-76
2021/03/31 06:59:11;;;;;;;7.22;3.90;;;;;;;10.89;54.52;98857.81;4988267;28;20279;-74
2021/03/31 07:01:39;;;;;;;6.47;3.33;;;;;;;11.08;54.66;98857.28;4982397;28;20212;-74
2021/03/31 07:04:07;;;;;;;9.82;3.95;;;;;;;11.28;54.55;98854.91;4982355;28;20236;-74
2021/03/31 07:06:33;;;;;;;8.20;4.35;;;;;;;11.45;53.59;98848.31;4982485;28;20239;-74
2021/03/31 07:08:59;;;;;;;11.18;5.00;;;;;;;11.59;53.85;98846.13;4985472;28;20207;-74
2021/03/31 07:11:42;;;;;;;10.45;4.45;;;;;;;11.74;53.37;98850.91;4982794;28;20219;-74
2021/03/31 07:14:11;;;;;;;7.75;4.40;;;;;;;11.89;53.16;98849.53;4985103;28;20222;-74
2021/03/31 07:16:38;;;;;;;7.82;3.95;;;;;;;11.99;53.08;98857.97;4980856;28;20250;-75
2021/03/31 07:19:05;;;;;;;10.15;4.68;;;;;;;12.06;52.60;98845.56;4982204;28;20273;-76
2021/03/31 07:21:31;;;;;;;9.52;5.38;;;;;;;12.09;52.01;98843.69;4980736;28;20215;-75
2021/03/31 07:23:58;;;;;;;7.40;4.43;;;;;;;12.15;52.51;98843.47;4980912;28;20244;-74
2021/03/31 07:26:25;;;;;;;7.68;4.35;;;;;;;12.24;53.33;98836.19;4985126;28;20243;-74
2021/03/31 07:28:51;;;;;;;6.32;4.05;;;;;;;12.29;52.47;98840.38;4985601;28;20289;-75
2021/03/31 07:31:23;;;;;;;8.45;4.35;;;;;;;12.39;53.25;98833.06;4985226;28;20224;-75
2021/03/31 07:34:00;;;;;;;9.65;5.10;;;;;;;12.46;52.63;98838.91;4982135;28;20208;-76
2021/03/31 07:36:27;;;;;;;6.95;4.13;;;;;;;12.56;52.98;98842.09;4981050;28;20267;-75
2021/03/31 07:38:53;;;;;;;6.40;3.75;;;;;;;12.65;53.16;98836.53;4978546;28;20283;-75
2021/03/31 07:41:19;;;;;;;10.80;3.93;;;;;;;12.75;52.93;98837.88;4978935;28;20100;-76
2021/03/31 07:43:46;;;;;;;7.95;3.70;;;;;;;12.85;52.59;98839.25;4980585;28;20538;-74
2021/03/31 07:46:15;;;;;;;7.35;3.97;;;;;;;12.99;52.72;98835.28;4982231;28;20248;-74
2021/03/31 07:48:42;;;;;;;7.68;3.80;;;;;;;13.11;52.38;98832.19;4982379;28;20881;-74
2021/03/31 07:51:16;;;;;;;7.82;3.60;;;;;;;13.24;52.16;98836.03;4982206;28;20281;-74
2021/03/31 07:53:43;;;;;;;6.75;3.50;;;;;;;13.37;52.16;98835.63;4977530;28;20706;-74
2021/03/31 07:56:13;;;;;;;5.93;3.33;;;;;;;13.50;51.81;98834.22;4984266;28;20241;-74
2021/03/31 07:58:39;;;;;;;6.45;3.67;;;;;;;13.63;51.65;98832.78;4985801;28;20216;-74
2021/03/31 08:01:07;;;;;;;7.82;4.00;;;;;;;13.78;51.34;98835.72;4986785;28;20315;-74
2021/03/31 08:03:35;;;;;;;7.47;3.65;;;;;;;13.91;51.15;98836.91;4988687;28;20240;-75
2021/03/31 08:06:10;;;;;;;6.88;3.35;;;;;;;14.04;50.70;98832.91;4986618;28;20227;-74
2021/03/31 08:08:38;;;;;;;7.45;3.90;;;;;;;14.18;50.26;98829.66;4983056;28;20211;-74
2021/03/31 08:11:04;;;;;;;7.15;3.65;;;;;;;14.31;50.01;98835.25;4988531;28;20267;-74
2021/03/31 08:13:32;;;;;;;9.73;3.85;;;;;;;14.44;49.35;98831.16;4990311;28;20232;-74
2021/03/31 08:16:00;;;;;;;9.38;3.83;;;;;;;14.58;48.96;98835.03;4985373;28;20220;-74
2021/03/31 08:18:26;;;;;;;7.63;3.72;;;;;;;14.68;48.88;98838.91;4986451;28;20209;-74
2021/03/31 08:20:54;;;;;;;6.13;3.92;;;;;;;14.79;48.53;98831.41;4980933;28;20212;-74
2021/03/31 08:23:48;;;;;;;6.85;3.58;;;;;;;14.93;47.26;98827.34;4982989;28;20233;-74
2021/03/31 08:26:28;;;;;;;6.95;3.95;;;;;;;15.04;47.30;98825.91;4989843;28;20315;-74
2021/03/31 08:28:54;;;;;;;8.27;4.40;;;;;;;15.14;47.14;98826.31;4986618;28;20266;-74
2021/03/31 08:31:21;;;;;;;7.55;3.92;;;;;;;15.28;47.18;98827.47;4984408;28;20239;-74
2021/03/31 08:33:47;;;;;;;8.80;4.00;;;;;;;15.41;46.73;98823.34;4989231;28;20217;-74
2021/03/31 08:36:14;;;;;;;10.15;3.75;;;;;;;15.51;46.96;98819.34;4985719;28;20280;-74
2021/03/31 08:38:40;;;;;;;9.48;4.10;;;;;;;15.64;46.86;98818.75;4985197;28;20216;-74
2021/03/31 08:41:16;;;;;;;8.00;4.13;;;;;;;15.78;46.57;98816.31;4987871;28;21031;-87
2021/03/31 08:43:44;;;;;;;7.88;4.18;;;;;;;15.89;46.42;98814.00;4983749;28;20240;-74
2021/03/31 08:46:10;;;;;;;9.15;4.85;;;;;;;16.06;46.09;98804.41;4988532;28;20712;-75
2021/03/31 08:48:38;;;;;;;7.30;4.60;;;;;;;16.24;45.73;98808.75;4990115;28;20216;-75
2021/03/31 08:51:08;;;;;;;8.02;4.20;;;;;;;16.40;45.98;98813.25;4986981;28;20227;-74
2021/03/31 08:53:35;;;;;;;7.53;4.35;;;;;;;16.53;45.70;98803.75;4984232;28;20283;-75
2021/03/31 08:56:02;;;;;;;6.43;3.92;;;;;;;16.65;45.08;98803.13;4975872;28;20236;-75
2021/03/31 08:58:29;;;;;;;9.35;4.35;;;;;;;16.74;45.37;98802.63;4984858;28;20226;-77
2021/03/31 09:00:55;;;;;;;7.00;4.47;;;;;;;16.85;44.92;98798.59;4985730;28;20221;-74
2021/03/31 09:03:22;;;;;;;11.05;4.60;;;;;;;16.96;44.39;98796.22;4979362;28;20728;-75
2021/03/31 09:06:09;;;;;;;8.23;5.20;;;;;;;17.12;43.93;98796.22;4980673;28;20220;-75
2021/03/31 09:08:35;;;;;;;9.15;4.70;;;;;;;17.22;44.33;98791.28;4977207;28;20218;-75
2021/03/31 09:11:03;;;;;;;8.45;4.53;;;;;;;17.34;44.12;98790.63;4980747;28;20345;-74
2021/03/31 09:13:32;;;;;;;9.88;4.95;;;;;;;17.46;43.68;98787.31;4989259;28;20220;-74
2021/03/31 09:15:59;;;;;;;8.13;5.05;;;;;;;17.54;43.35;98785.06;4981552;28;20219;-75
2021/03/31 09:18:26;;;;;;;7.40;4.88;;;;;;;17.66;43.16;98780.00;4985264;28;20215;-75
2021/03/31 09:20:52;;;;;;;8.48;4.30;;;;;;;17.78;42.86;98781.97;4984823;28;20220;-75
2021/03/31 09:23:23;;;;;;;7.03;4.45;;;;;;;17.90;42.55;98778.63;4977553;28;20334;-74
2021/03/31 09:26:01;;;;;;;8.38;4.55;;;;;;;18.06;42.41;98767.16;4983414;28;20237;-75
2021/03/31 09:28:28;;;;;;;8.02;4.60;;;;;;;18.12;42.48;98772.06;4980708;28;20212;-75
2021/03/31 09:31:00;;;;;;;7.97;4.70;;;;;;;18.23;41.74;98763.50;4983961;28;20208;-75
2021/03/31 09:33:30;;;;;;;7.47;4.13;;;;;;;18.44;41.58;98764.00;4979594;28;20291;-76
2021/03/31 09:36:10;;;;;;;7.55;4.38;;;;;;;18.62;41.14;98765.53;4980797;28;20216;-75
2021/03/31 09:38:36;;;;;;;7.10;4.38;;;;;;;18.75;41.21;98760.34;4979096;28;20212;-75
2021/03/31 09:41:04;;;;;;;7.88;4.10;;;;;;;18.86;41.09;98751.75;4977260;28;20209;-75
2021/03/31 09:43:30;;;;;;;8.35;4.95;;;;;;;18.97;40.63;98754.56;4982184;28;20235;-75
2021/03/31 09:45:58;;;;;;;6.93;5.07;;;;;;;19.04;39.76;98750.59;4984594;28;20756;-75
2021/03/31 09:48:24;;;;;;;10.55;5.22;;;;;;;19.09;39.90;98741.50;4984848;28;20217;-75
2021/03/31 09:50:51;;;;;;;9.25;5.07;;;;;;;19.14;39.85;98739.44;4978557;28;20216;-75
2021/03/31 09:53:18;;;;;;;8.52;5.20;;;;;;;19.22;39.55;98742.41;4980277;28;20208;-75
2021/03/31 09:55:44;;;;;;;7.88;5.22;;;;;;;19.22;38.85;98742.41;4976925;28;20673;-75
2021/03/31 09:58:10;;;;;;;9.10;5.82;;;;;;;19.33;38.79;98729.34;4984287;28;20216;-75
2021/03/31 10:00:38;;;;;;;8.38;5.47;;;;;;;19.40;38.82;98725.34;4985108;28;20219;-75
2021/03/31 10:03:06;;;;;;;9.25;5.70;;;;;;;19.53;38.46;98724.53;4979678;28;20248;-75
2021/03/31 10:05:33;;;;;;;10.63;5.75;;;;;;;19.65;38.48;98718.44;4982522;28;20247;-75
2021/03/31 10:08:01;;;;;;;8.50;5.72;;;;;;;19.76;38.17;98715.94;4982462;28;20235;-75
2021/03/31 10:10:41;;;;;;;12.15;6.38;;;;;;;19.94;37.93;98713.00;4974888;28;20208;-75
2021/03/31 10:13:08;;;;;;;9.30;5.28;;;;;;;20.10;37.81;98713.63;4980335;28;20233;-75
2021/03/31 10:15:34;;;;;;;9.70;6.50;;;;;;;20.26;37.47;98707.31;4980782;28;20217;-75
2021/03/31 10:18:00;;;;;;;11.98;5.25;;;;;;;20.33;36.88;98709.41;4980091;28;20643;-75
2021/03/31 10:20:31;;;;;;;8.13;5.95;;;;;;;20.48;36.45;98709.28;4979097;28;20251;-74
2021/03/31 10:22:57;;;;;;;9.43;6.03;;;;;;;20.56;36.22;98699.81;4981633;28;20267;-75
2021/03/31 10:25:25;;;;;;;10.38;6.13;;;;;;;20.64;35.48;98706.41;4982301;28;20228;-75
2021/03/31 10:27:51;;;;;;;9.80;6.03;;;;;;;20.73;35.17;98705.75;4980640;28;20239;-76
2021/03/31 10:30:25;;;;;;;8.50;5.57;;;;;;;20.89;35.08;98695.75;4977268;28;20215;-75
2021/03/31 10:32:52;;;;;;;9.60;5.40;;;;;;;21.07;35.29;98698.88;4982429;28;20215;-75
2021/03/31 10:35:41;;;;;;;8.55;5.78;;;;;;;21.32;34.31;98692.63;4983439;28;20227;-75
2021/03/31 10:38:10;;;;;;;8.85;5.53;;;;;;;21.53;33.83;98694.66;4980938;28;21025;-75
2021/03/31 10:41:04;;;;;;;9.40;5.28;;;;;;;21.70;34.02;98691.56;4981987;28;20220;-75
2021/03/31 10:49:17;;;;;;;8.43;5.80;;;;;;;22.17;33.37;98680.91;4978992;28;20356;-75
2021/03/31 10:51:52;;;;;;;8.23;5.40;;;;;;;22.33;32.32;98684.09;4977153;28;20293;-75
2021/03/31 10:54:20;;;;;;;7.28;4.93;;;;;;;22.54;31.87;98674.53;4976691;28;20216;-75
2021/03/31 10:56:53;;;;;;;6.30;4.70;;;;;;;22.74;32.21;98681.75;4980401;28;20321;-75
2021/03/31 10:59:19;;;;;;;6.60;5.03;;;;;;;22.91;31.22;98672.41;4983311;28;20237;-75
2021/03/31 11:01:46;;;;;;;7.78;4.97;;;;;;;23.07;31.33;98672.06;4978776;28;20227;-75
2021/03/31 11:04:12;;;;;;;7.55;4.45;;;;;;;23.24;30.89;98662.69;4977061;28;20246;-75
2021/03/31 11:06:38;;;;;;;6.13;4.32;;;;;;;23.39;29.93;98655.22;4981523;28;20773;-75
2021/03/31 11:09:05;;;;;;;8.32;4.53;;;;;;;23.62;29.79;98656.81;4976352;28;20212;-75
2021/03/31 11:11:32;;;;;;;7.93;5.45;;;;;;;23.76;29.78;98657.44;4982754;28;20208;-76
2021/03/31 11:13:58;;;;;;;7.28;4.93;;;;;;;23.73;30.12;98649.72;4978088;28;20219;-75
2021/03/31 11:16:25;;;;;;;7.57;5.38;;;;;;;23.88;29.76;98651.13;4978236;28;20751;-75
2021/03/31 11:18:59;;;;;;;7.28;5.30;;;;;;;24.12;28.38;98642.81;4981883;28;20231;-74
2021/03/31 11:26:56;;;;;;;6.30;3.78;;;;;;;24.72;28.01;98623.38;4977943;28;20286;-74
2021/03/31 11:29:23;;;;;;;6.22;3.65;;;;;;;24.89;28.14;98624.56;4985133;28;20208;-75
2021/03/31 11:31:49;;;;;;;7.90;4.68;;;;;;;25.13;27.79;98616.16;4984702;28;20208;-75
2021/03/31 11:34:15;;;;;;;5.47;4.20;;;;;;;25.37;27.67;98613.06;4984732;28;20588;-75
2021/03/31 11:36:41;;;;;;;5.90;3.90;;;;;;;25.64;27.34;98615.00;4989964;28;20243;-75
2021/03/31 11:39:07;;;;;;;5.53;4.55;;;;;;;25.86;27.23;98603.13;4982499;28;20208;-75
2021/03/31 11:41:34;;;;;;;7.45;4.50;;;;;;;26.07;25.69;98604.78;4985729;28;20209;-75
2021/03/31 11:44:00;;;;;;;6.63;4.63;;;;;;;26.46;24.92;98604.59;4986120;28;20258;-75
2021/03/31 11:46:26;;;;;;;6.78;4.40;;;;;;;26.92;24.54;98600.09;4985782;28;20244;-75
2021/03/31 11:48:52;;;;;;;6.18;4.68;;;;;;;27.56;24.42;98600.00;4978318;28;20213;-75
2021/03/31 11:51:18;;;;;;;5.95;4.05;;;;;;;28.19;23.72;98590.81;4982560;28;20227;-75
2021/03/31 11:53:44;;;;;;;4.65;4.13;;;;;;;28.89;23.36;98587.88;4981397;28;20323;-75
2021/03/31 11:56:10;;;;;;;5.22;4.57;;;;;;;29.77;22.51;98584.53;4981909;28;20228;-75